createdAt,value
2022-12-29T00:00:06.635Z,1.55
2022-12-29T00:02:39.605Z,1.88
2022-12-29T00:05:07.320Z,2.17
2022-12-29T00:07:34.006Z,2.58
2022-12-29T00:10:00.832Z,1.80
2022-12-29T00:12:47.689Z,3.08
2022-12-29T00:15:33.165Z,2.53
2022-12-29T00:18:00.902Z,2.13
2022-12-29T00:20:46.472Z,2.05
2022-12-29T00:23:32.208Z,2.20
2022-12-29T00:26:17.685Z,1.90
2022-12-29T00:29:03.227Z,3.00
2022-12-29T00:31:48.495Z,3.67
2022-12-29T00:34:34.790Z,3.65
2022-12-29T00:37:02.988Z,3.22
2022-12-29T00:39:48.250Z,1.83
2022-12-29T00:42:34.389Z,2.50
2022-12-29T00:45:01.134Z,2.30
2022-12-29T00:47:29.864Z,2.78
2022-12-29T00:49:56.613Z,3.28
2022-12-29T00:52:23.284Z,2.97
2022-12-29T00:54:50.147Z,2.38
2022-12-29T00:57:17.101Z,2.22
2022-12-29T00:59:44.893Z,3.95
2022-12-29T01:02:12.283Z,9.98
2022-12-29T01:04:39.133Z,3.42
2022-12-29T01:07:05.972Z,4.00
2022-12-29T01:09:51.834Z,7.47
2022-12-29T01:12:38.946Z,6.65
2022-12-29T01:15:06.359Z,4.50
2022-12-29T01:17:34.005Z,3.35
2022-12-29T01:20:02.180Z,3.10
2022-12-29T01:22:29.113Z,4.85
2022-12-29T01:24:56.070Z,1.73
2022-12-29T01:27:22.927Z,4.50
2022-12-29T01:29:49.587Z,3.70
2022-12-29T01:32:16.336Z,1.83
2022-12-29T01:34:45.064Z,1.70
2022-12-29T01:37:12.082Z,8.23
2022-12-29T01:39:38.940Z,6.47
2022-12-29T01:42:05.673Z,7.40
2022-12-29T01:44:47.756Z,4.72
2022-12-29T01:47:21.844Z,9.52
2022-12-29T01:49:48.649Z,5.82
2022-12-29T01:52:15.442Z,2.40
2022-12-29T01:54:51.939Z,2.25
2022-12-29T01:57:22.747Z,2.92
2022-12-29T02:00:09.518Z,3.70
2022-12-29T02:02:52.004Z,2.13
2022-12-29T02:05:42.853Z,2.95
2022-12-29T02:08:14.057Z,3.90
2022-12-29T02:10:42.778Z,7.18
2022-12-29T02:13:09.495Z,5.72
2022-12-29T02:15:59.610Z,4.03
2022-12-29T02:18:35.454Z,5.30
2022-12-29T02:21:18.613Z,3.90
2022-12-29T02:24:16.410Z,2.47
2022-12-29T02:26:54.723Z,1.75
2022-12-29T02:29:39.939Z,2.88
2022-12-29T02:32:26.607Z,2.65
2022-12-29T02:35:15.725Z,2.17
2022-12-29T02:38:00.564Z,2.67
2022-12-29T02:40:36.873Z,2.05
2022-12-29T02:43:10.495Z,3.30
2022-12-29T02:45:52.802Z,3.88
2022-12-29T02:48:24.964Z,4.63
2022-12-29T02:51:10.489Z,3.05
2022-12-29T02:53:56.852Z,3.05
2022-12-29T02:56:23.622Z,2.65
2022-12-29T02:58:50.375Z,3.22
2022-12-29T03:01:38.898Z,1.58
2022-12-29T03:04:33.393Z,2.30
2022-12-29T03:07:28.853Z,1.83
2022-12-29T03:10:11.386Z,2.90
2022-12-29T03:16:04.970Z,1.75
2022-12-29T03:18:47.431Z,2.17
2022-12-29T03:21:55.619Z,2.80
2022-12-29T03:24:28.460Z,1.25
2022-12-29T03:27:00.206Z,2.83
2022-12-29T03:29:37.599Z,4.40
2022-12-29T03:32:05.966Z,3.05
2022-12-29T03:34:34.419Z,1.65
2022-12-29T03:37:13.886Z,1.15
2022-12-29T03:39:42.556Z,2.35
2022-12-29T03:42:20.882Z,2.72
2022-12-29T03:44:48.365Z,2.17
2022-12-29T03:47:16.490Z,1.92
2022-12-29T03:49:45.693Z,2.33
2022-12-29T03:52:12.635Z,2.63
2022-12-29T03:54:43.462Z,1.95
2022-12-29T03:57:11.923Z,1.35
2022-12-29T03:59:52.330Z,1.73
2022-12-29T04:02:19.245Z,2.47
2022-12-29T04:04:46.319Z,2.10
2022-12-29T04:07:12.964Z,2.45
2022-12-29T04:09:41.111Z,1.92
2022-12-29T04:12:10.719Z,1.40
2022-12-29T04:14:37.566Z,1.73
2022-12-29T04:17:04.210Z,1.95
2022-12-29T04:19:31.410Z,2.33
2022-12-29T04:21:58.225Z,4.32
2022-12-29T04:24:24.966Z,1.58
2022-12-29T04:26:51.752Z,2.42
2022-12-29T04:29:30.051Z,2.30
2022-12-29T04:32:19.844Z,1.85
2022-12-29T04:34:49.759Z,2.03
2022-12-29T04:37:16.550Z,2.78
2022-12-29T04:39:43.230Z,1.73
2022-12-29T04:42:09.979Z,2.72
2022-12-29T04:44:41.291Z,3.42
2022-12-29T04:47:15.186Z,2.20
2022-12-29T04:50:05.904Z,2.83
2022-12-29T04:52:52.967Z,3.38
2022-12-29T04:55:19.676Z,5.10
2022-12-29T04:57:46.348Z,2.72
2022-12-29T05:00:17.631Z,2.20
2022-12-29T05:02:46.218Z,2.63
2022-12-29T05:05:14.566Z,2.25
2022-12-29T05:07:44.139Z,2.92
2022-12-29T05:10:11.409Z,2.10
2022-12-29T05:12:38.922Z,1.95
2022-12-29T05:15:08.211Z,1.90
2022-12-29T05:17:35.202Z,1.80
2022-12-29T05:20:02.011Z,1.95
2022-12-29T05:22:29.827Z,1.83
2022-12-29T05:24:57.272Z,1.90
2022-12-29T05:27:24.301Z,2.33
2022-12-29T05:30:14.147Z,3.15
2022-12-29T05:32:41.138Z,2.60
2022-12-29T05:35:08.727Z,1.92
2022-12-29T05:37:35.431Z,3.05
2022-12-29T05:40:03.701Z,3.40
2022-12-29T05:42:30.403Z,3.90
2022-12-29T05:45:18.148Z,1.58
2022-12-29T05:47:54.244Z,2.58
2022-12-29T05:50:35.573Z,3.47
2022-12-29T05:53:15.860Z,2.58
2022-12-29T05:55:48.540Z,1.58
2022-12-29T05:58:17.777Z,2.38
2022-12-29T06:00:44.555Z,3.78
2022-12-29T06:03:11.987Z,2.42
2022-12-29T06:05:38.848Z,1.27
2022-12-29T06:08:05.766Z,1.98
2022-12-29T06:10:32.693Z,2.20
2022-12-29T06:13:06.540Z,3.47
2022-12-29T06:15:36.621Z,2.80
2022-12-29T06:18:05.883Z,2.97
2022-12-29T06:20:32.655Z,4.00
2022-12-29T06:22:59.405Z,1.95
2022-12-29T06:25:26.147Z,3.30
2022-12-29T06:27:52.808Z,5.90
2022-12-29T06:30:20.421Z,2.35
2022-12-29T06:32:47.881Z,3.05
2022-12-29T06:35:14.854Z,1.95
2022-12-29T06:37:52.392Z,3.08
2022-12-29T06:40:20.182Z,2.45
2022-12-29T06:43:07.057Z,2.38
2022-12-29T06:45:52.484Z,2.92
2022-12-29T06:48:19.124Z,4.80
2022-12-29T06:50:45.842Z,4.82
2022-12-29T06:53:12.510Z,5.07
2022-12-29T06:55:39.165Z,4.32
2022-12-29T06:58:05.856Z,6.88
2022-12-29T07:00:32.493Z,3.45
2022-12-29T07:03:00.059Z,4.90
2022-12-29T07:05:28.704Z,2.80
2022-12-29T07:07:56.231Z,2.90
2022-12-29T07:10:23.024Z,3.40
2022-12-29T07:12:49.679Z,3.00
2022-12-29T07:15:16.487Z,3.00
2022-12-29T07:17:43.153Z,3.22
2022-12-29T07:20:10.726Z,5.53
2022-12-29T07:22:37.501Z,3.67
2022-12-29T07:25:04.600Z,2.78
2022-12-29T07:27:31.298Z,3.35
2022-12-29T07:29:57.928Z,2.63
2022-12-29T07:32:24.592Z,2.58
2022-12-29T07:34:51.315Z,3.40
2022-12-29T07:37:18.548Z,2.65
2022-12-29T07:39:45.456Z,3.38
2022-12-29T07:42:12.107Z,4.95
2022-12-29T07:44:42.904Z,2.10
2022-12-29T07:47:41.891Z,2.25
2022-12-29T07:50:08.692Z,3.65
2022-12-29T07:52:35.378Z,3.25
2022-12-29T07:55:02.061Z,2.28
2022-12-29T07:57:32.075Z,3.17
2022-12-29T07:59:59.417Z,3.00
2022-12-29T08:02:27.430Z,2.22
2022-12-29T08:04:54.326Z,5.43
2022-12-29T08:07:21.012Z,2.20
2022-12-29T08:09:47.643Z,2.38
2022-12-29T08:12:14.324Z,4.35
2022-12-29T08:14:40.953Z,4.47
2022-12-29T08:17:07.592Z,5.07
2022-12-29T08:19:34.353Z,4.28
2022-12-29T08:22:01.003Z,4.90
2022-12-29T08:24:27.639Z,5.30
2022-12-29T08:26:54.338Z,6.35
2022-12-29T08:29:22.425Z,3.47
2022-12-29T08:31:49.355Z,4.15
2022-12-29T08:34:16.033Z,5.43
2022-12-29T08:36:42.712Z,4.05
2022-12-29T08:39:09.395Z,3.75
2022-12-29T08:41:36.227Z,5.07
2022-12-29T08:44:02.993Z,4.78
2022-12-29T08:46:29.700Z,6.45
2022-12-29T08:48:56.430Z,4.65
2022-12-29T08:51:25.004Z,6.47
2022-12-29T08:53:52.113Z,3.88
2022-12-29T08:56:19.375Z,6.15
2022-12-29T08:58:50.668Z,8.45
2022-12-29T09:01:19.090Z,4.88
2022-12-29T09:04:13.677Z,4.82
2022-12-29T09:06:38.204Z,5.90
2022-12-29T09:09:06.717Z,5.35
2022-12-29T09:11:33.385Z,3.45
2022-12-29T09:14:00.050Z,4.63
2022-12-29T09:16:28.026Z,5.90
2022-12-29T09:18:54.747Z,5.93
2022-12-29T09:21:21.447Z,7.18
2022-12-29T09:23:49.511Z,2.40
2022-12-29T09:26:16.154Z,4.32
2022-12-29T09:28:43.263Z,2.03
2022-12-29T09:31:09.993Z,2.95
2022-12-29T09:33:36.800Z,4.07
2022-12-29T09:36:04.088Z,4.97
2022-12-29T09:38:31.026Z,4.00
2022-12-29T09:41:40.119Z,4.40
2022-12-29T09:44:12.533Z,4.63
2022-12-29T09:46:44.495Z,2.53
2022-12-29T09:49:17.546Z,9.17
2022-12-29T09:51:49.172Z,3.80
2022-12-29T09:54:38.072Z,4.93
2022-12-29T09:57:06.350Z,2.97
2022-12-29T09:59:42.011Z,7.47
2022-12-29T10:02:30.809Z,3.38
2022-12-29T10:04:57.973Z,3.60
2022-12-29T10:07:32.651Z,2.83
2022-12-29T10:10:18.710Z,2.53
2022-12-29T10:13:01.214Z,4.88
2022-12-29T10:15:46.018Z,4.63
2022-12-29T10:18:31.978Z,3.10
2022-12-29T10:21:08.681Z,4.18
2022-12-29T10:23:52.658Z,3.45
2022-12-29T10:26:29.917Z,3.58
2022-12-29T10:29:07.378Z,2.67
2022-12-29T10:31:43.990Z,5.10
2022-12-29T10:34:23.211Z,4.57
2022-12-29T10:36:57.004Z,6.13
2022-12-29T10:39:43.036Z,4.65
2022-12-29T10:42:29.505Z,3.92
2022-12-29T10:44:57.567Z,4.10
2022-12-29T10:47:34.591Z,7.53
2022-12-29T10:50:02.425Z,2.40
2022-12-29T10:52:31.544Z,4.60
2022-12-29T10:55:09.765Z,2.75
2022-12-29T10:57:40.840Z,3.42
2022-12-29T11:00:21.720Z,4.00
2022-12-29T11:03:23.025Z,3.60
2022-12-29T11:06:03.818Z,2.25
2022-12-29T11:08:42.011Z,4.18
2022-12-29T11:11:10.771Z,3.15
2022-12-29T11:13:57.495Z,5.15
2022-12-29T11:16:35.730Z,3.78
2022-12-29T11:19:03.028Z,4.35
2022-12-29T11:21:43.339Z,3.85
2022-12-29T11:24:22.444Z,2.53
2022-12-29T11:26:51.747Z,7.40
2022-12-29T11:29:24.545Z,2.75
2022-12-29T11:31:58.554Z,3.15
2022-12-29T11:34:34.215Z,7.50
2022-12-29T11:37:21.025Z,7.55
2022-12-29T11:40:00.725Z,6.75
2022-12-29T11:42:40.171Z,8.88
2022-12-29T11:45:21.961Z,6.55
2022-12-29T11:47:54.830Z,5.10
2022-12-29T11:50:32.766Z,5.30
2022-12-29T11:53:03.852Z,8.23
2022-12-29T11:55:32.059Z,5.75
2022-12-29T11:58:02.524Z,4.20
2022-12-29T12:00:33.528Z,7.50
2022-12-29T12:03:22.148Z,9.18
2022-12-29T12:06:05.190Z,5.95
2022-12-29T12:09:05.182Z,4.30
2022-12-29T12:11:39.039Z,3.92
2022-12-29T12:14:11.996Z,4.55
2022-12-29T12:19:53.992Z,4.13
2022-12-29T12:22:28.514Z,3.63
2022-12-29T12:25:00.600Z,5.30
2022-12-29T12:27:40.983Z,3.17
2022-12-29T12:30:20.553Z,5.60
2022-12-29T12:32:53.397Z,3.30
2022-12-29T12:35:36.171Z,2.40
2022-12-29T12:38:17.184Z,4.65
2022-12-29T12:41:18.137Z,4.85
2022-12-29T12:43:48.051Z,3.45
2022-12-29T12:46:39.377Z,2.10
2022-12-29T12:49:14.474Z,2.90
2022-12-29T12:51:53.262Z,3.00
2022-12-29T12:54:28.965Z,3.55
2022-12-29T12:57:16.167Z,3.13
2022-12-29T13:00:04.006Z,4.15
2022-12-29T13:02:55.848Z,4.55
2022-12-29T13:06:03.196Z,2.78
2022-12-29T13:08:40.676Z,3.30
2022-12-29T13:11:41.374Z,5.00
2022-12-29T13:14:28.509Z,4.03
2022-12-29T13:17:27.596Z,4.20
2022-12-29T13:20:16.938Z,3.33
2022-12-29T13:23:02.100Z,4.50
2022-12-29T13:25:34.765Z,5.20
2022-12-29T13:28:32.755Z,3.63
2022-12-29T13:31:11.720Z,3.63
2022-12-29T13:34:06.491Z,4.78
2022-12-29T13:36:52.633Z,3.80
2022-12-29T13:39:29.888Z,3.95
2022-12-29T13:41:57.916Z,3.83
2022-12-29T13:44:47.603Z,3.08
2022-12-29T13:47:33.517Z,5.57
2022-12-29T13:50:02.883Z,5.68
2022-12-29T13:53:00.108Z,3.13
2022-12-29T13:55:49.520Z,3.75
2022-12-29T13:58:20.984Z,4.78
2022-12-29T14:00:56.135Z,6.17
2022-12-29T14:03:30.718Z,6.60
2022-12-29T14:06:28.184Z,3.78
2022-12-29T14:09:00.802Z,2.97
2022-12-29T14:11:34.768Z,3.60
2022-12-29T14:14:22.157Z,3.63
2022-12-29T14:16:49.511Z,4.95
2022-12-29T14:19:20.729Z,5.35
2022-12-29T14:22:03.430Z,3.28
2022-12-29T14:24:36.012Z,2.67
2022-12-29T14:27:11.743Z,3.63
2022-12-29T14:29:41.366Z,3.28
2022-12-29T14:32:26.537Z,4.82
2022-12-29T14:34:55.365Z,6.75
2022-12-29T14:37:34.031Z,5.65
2022-12-29T14:40:07.718Z,6.63
2022-12-29T14:42:34.785Z,6.72
2022-12-29T14:45:26.097Z,5.78
2022-12-29T14:47:53.835Z,4.15
2022-12-29T14:50:26.011Z,5.25
2022-12-29T14:53:05.120Z,7.40
2022-12-29T14:55:41.008Z,5.35
2022-12-29T14:58:27.855Z,7.50
2022-12-29T15:00:55.708Z,6.10
2022-12-29T15:03:31.717Z,4.82
2022-12-29T15:06:30.876Z,6.00
2022-12-29T15:09:39.243Z,4.43
2022-12-29T15:12:33.743Z,3.33
2022-12-29T15:15:02.476Z,5.53
2022-12-29T15:17:35.400Z,4.18
2022-12-29T15:20:22.830Z,5.57
2022-12-29T15:23:03.541Z,5.22
2022-12-29T15:25:31.927Z,2.92
2022-12-29T15:28:02.704Z,4.72
2022-12-29T15:30:30.076Z,6.88
2022-12-29T15:32:56.892Z,3.45
2022-12-29T15:35:28.391Z,4.53
2022-12-29T15:37:55.416Z,5.97
2022-12-29T15:40:33.007Z,7.05
2022-12-29T15:43:14.488Z,9.77
2022-12-29T15:45:41.443Z,9.43
2022-12-29T15:48:18.112Z,9.77
2022-12-29T15:50:45.453Z,5.85
2022-12-29T15:53:19.143Z,6.30
2022-12-29T15:55:48.593Z,6.50
2022-12-29T15:58:28.084Z,7.82
2022-12-29T16:01:00.355Z,5.57
2022-12-29T16:05:58.316Z,4.43
2022-12-29T16:08:34.839Z,4.18
2022-12-29T16:11:23.663Z,4.35
2022-12-29T16:13:53.174Z,4.22
2022-12-29T16:16:24.029Z,4.50
2022-12-29T16:18:57.232Z,4.07
2022-12-29T16:21:28.959Z,4.65
2022-12-29T16:23:59.592Z,3.72
2022-12-29T16:26:26.553Z,6.13
2022-12-29T16:28:59.554Z,3.92
2022-12-29T16:31:33.519Z,2.33
2022-12-29T16:34:23.879Z,3.20
2022-12-29T16:37:04.085Z,4.00
2022-12-29T16:39:32.382Z,4.18
2022-12-29T16:41:59.299Z,2.30
2022-12-29T16:44:28.985Z,4.88
2022-12-29T16:47:18.260Z,5.03
2022-12-29T16:49:52.330Z,3.15
2022-12-29T16:52:24.018Z,4.00
2022-12-29T16:54:57.113Z,3.80
2022-12-29T16:57:28.144Z,3.30
2022-12-29T17:00:00.306Z,3.17
2022-12-29T17:02:29.972Z,3.22
2022-12-29T17:04:56.801Z,3.92
2022-12-29T17:07:25.818Z,2.60
2022-12-29T17:09:54.289Z,2.70
2022-12-29T17:12:25.335Z,2.33
2022-12-29T17:15:02.722Z,4.18
2022-12-29T17:17:36.794Z,3.00
2022-12-29T17:20:10.879Z,4.05
2022-12-29T17:22:37.537Z,4.45
2022-12-29T17:25:04.492Z,2.67
2022-12-29T17:27:49.860Z,2.40
2022-12-29T17:30:21.448Z,3.50
2022-12-29T17:32:54.461Z,3.33
2022-12-29T17:35:22.919Z,2.60
2022-12-29T17:37:50.490Z,3.67
2022-12-29T17:40:22.429Z,2.20
2022-12-29T17:42:52.217Z,6.53
2022-12-29T17:45:26.395Z,2.90
2022-12-29T17:47:53.124Z,2.53
2022-12-29T17:50:24.273Z,7.25
2022-12-29T17:53:00.606Z,2.05
2022-12-29T17:55:34.632Z,3.63
2022-12-29T17:58:28.017Z,3.70
2022-12-29T18:01:00.390Z,3.45
2022-12-29T18:03:31.672Z,2.25
2022-12-29T18:05:58.531Z,4.68
2022-12-29T18:08:25.214Z,4.07
2022-12-29T18:10:54.012Z,4.18
2022-12-29T18:13:33.563Z,3.20
2022-12-29T18:16:06.085Z,5.75
2022-12-29T18:18:32.760Z,4.07
2022-12-29T18:21:00.121Z,4.18
2022-12-29T18:23:32.187Z,2.67
2022-12-29T18:26:08.008Z,3.53
2022-12-29T18:28:34.619Z,2.75
2022-12-29T18:31:02.147Z,2.42
2022-12-29T18:33:29.907Z,3.00
2022-12-29T18:36:02.194Z,2.00
2022-12-29T18:40:58.222Z,2.33
2022-12-29T18:43:25.276Z,2.72
2022-12-29T18:45:51.957Z,3.03
2022-12-29T18:48:20.183Z,3.60
2022-12-29T18:50:49.910Z,3.13
2022-12-29T18:53:18.236Z,4.78
2022-12-29T18:55:45.054Z,2.63
2022-12-29T18:58:11.957Z,5.30
2022-12-29T19:00:38.987Z,3.22
2022-12-29T19:03:06.185Z,2.08
2022-12-29T19:05:38.895Z,2.90
2022-12-29T19:08:07.176Z,4.28
2022-12-29T19:10:34.638Z,2.47
2022-12-29T19:13:01.846Z,4.97
2022-12-29T19:15:28.426Z,3.63
2022-12-29T19:18:32.972Z,3.58
2022-12-29T19:20:45.153Z,3.50
2022-12-29T19:23:14.242Z,3.35
2022-12-29T19:25:41.418Z,2.95
2022-12-29T19:28:15.894Z,2.75
2022-12-29T19:30:42.496Z,3.10
2022-12-29T19:33:10.445Z,4.13
2022-12-29T19:35:37.748Z,2.50
2022-12-29T19:38:04.642Z,5.20
2022-12-29T19:40:31.410Z,8.20
2022-12-29T19:42:58.067Z,5.97
2022-12-29T19:45:24.690Z,6.35
2022-12-29T19:47:53.032Z,4.30
2022-12-29T19:50:19.773Z,3.28
2022-12-29T19:52:46.415Z,5.03
2022-12-29T19:55:17.369Z,3.45
2022-12-29T19:57:45.771Z,5.20
2022-12-29T20:00:13.800Z,3.90
2022-12-29T20:02:41.025Z,3.65
2022-12-29T20:05:08.546Z,6.07
2022-12-29T20:07:35.832Z,6.72
2022-12-29T20:10:04.072Z,5.65
2022-12-29T20:12:31.044Z,5.20
2022-12-29T20:14:57.740Z,5.85
2022-12-29T20:17:54.037Z,2.38
2022-12-29T20:20:11.290Z,4.03
2022-12-29T20:22:37.939Z,3.13
2022-12-29T20:25:42.968Z,2.97
2022-12-29T20:27:51.521Z,2.97
2022-12-29T20:30:19.357Z,2.58
2022-12-29T20:32:46.183Z,3.00
2022-12-29T20:35:13.048Z,2.83
2022-12-29T20:37:39.676Z,2.80
2022-12-29T20:40:08.706Z,4.68
2022-12-29T20:42:35.370Z,3.13
2022-12-29T20:45:01.983Z,5.15
2022-12-29T20:47:28.669Z,3.85
2022-12-29T20:49:55.361Z,3.20
2022-12-29T20:52:22.335Z,3.42
2022-12-29T20:54:49.016Z,3.53
2022-12-29T20:57:15.700Z,4.38
2022-12-29T20:59:42.940Z,2.95
2022-12-29T21:02:23.630Z,2.58
2022-12-29T21:05:22.734Z,2.53
2022-12-29T21:07:37.016Z,2.22
2022-12-29T21:10:03.902Z,1.95
2022-12-29T21:12:30.605Z,3.20
2022-12-29T21:14:57.291Z,4.13
2022-12-29T21:17:23.936Z,2.63
2022-12-29T21:19:50.601Z,2.78
2022-12-29T21:22:17.259Z,2.45
2022-12-29T21:24:43.902Z,1.30
2022-12-29T21:27:10.541Z,1.00
2022-12-29T21:29:37.144Z,1.77
2022-12-29T21:32:06.824Z,4.25
2022-12-29T21:34:34.794Z,1.15
2022-12-29T21:37:01.903Z,1.83
2022-12-29T21:39:28.544Z,0.38
2022-12-29T21:42:00.421Z,0.75
2022-12-29T21:44:46.002Z,1.75
2022-12-29T21:47:13.106Z,0.38
2022-12-29T21:49:39.700Z,0.52
2022-12-29T21:52:06.436Z,1.33
2022-12-29T21:54:51.743Z,1.38
2022-12-29T21:57:37.598Z,0.85
2022-12-29T22:00:28.624Z,0.25
2022-12-29T22:03:20.397Z,0.50
2022-12-29T22:06:08.660Z,0.55
2022-12-29T22:08:53.889Z,0.70
2022-12-29T22:11:39.166Z,0.50
2022-12-29T22:14:06.466Z,0.80
2022-12-29T22:16:33.384Z,1.30
2022-12-29T22:19:00.066Z,1.65
2022-12-29T22:21:26.837Z,0.22
2022-12-29T22:23:53.455Z,0.50
2022-12-29T22:26:20.189Z,0.47
2022-12-29T22:28:48.032Z,0.75
2022-12-29T22:31:27.585Z,1.08
2022-12-29T22:33:59.331Z,0.63
2022-12-29T22:36:27.470Z,2.28
2022-12-29T22:38:54.333Z,0.98
2022-12-29T22:41:21.533Z,0.40
2022-12-29T22:43:48.333Z,0.75
2022-12-29T22:46:15.113Z,1.27
2022-12-29T22:48:41.762Z,0.75
2022-12-29T22:51:08.364Z,0.63
2022-12-29T22:53:35.608Z,0.40
2022-12-29T22:56:08.691Z,0.35
2022-12-29T22:58:39.013Z,0.32
2022-12-29T23:01:05.735Z,1.30
2022-12-29T23:03:32.510Z,0.57
2022-12-29T23:06:00.879Z,1.00
2022-12-29T23:08:30.965Z,0.93
2022-12-29T23:10:57.593Z,2.45
2022-12-29T23:13:24.312Z,1.35
2022-12-29T23:15:51.043Z,1.00
2022-12-29T23:18:18.030Z,0.82
2022-12-29T23:20:45.119Z,2.42
2022-12-29T23:23:12.141Z,0.60
2022-12-29T23:25:39.818Z,1.05
2022-12-29T23:28:08.723Z,0.73
2022-12-29T23:30:35.641Z,1.20
2022-12-29T23:33:02.419Z,0.65
2022-12-29T23:35:29.147Z,1.23
2022-12-29T23:37:55.983Z,0.40
2022-12-29T23:40:22.760Z,0.52
2022-12-29T23:42:49.463Z,0.68
2022-12-29T23:45:16.233Z,0.50
2022-12-29T23:47:42.851Z,0.45
2022-12-29T23:50:09.461Z,1.13
2022-12-29T23:52:36.291Z,0.50
2022-12-29T23:55:03.260Z,1.27
2022-12-29T23:57:30.301Z,1.42
2022-12-29T23:59:56.913Z,0.90
